createdAt,value
2019-02-24T00:02:22.941Z,13.37
2019-02-24T00:04:55.328Z,13.33
2019-02-24T00:07:25.803Z,13.10
2019-02-24T00:09:56.313Z,13.03
2019-02-24T00:12:26.786Z,14.97
2019-02-24T00:14:57.302Z,14.80
2019-02-24T00:17:27.769Z,14.63
2019-02-24T00:19:58.277Z,13.53
2019-02-24T00:22:29.927Z,16.07
2019-02-24T00:25:00.424Z,14.77
2019-02-24T00:27:30.935Z,14.50
2019-02-24T00:30:01.412Z,14.90
2019-02-24T00:32:34.502Z,14.97
2019-02-24T00:35:06.503Z,15.50
2019-02-24T00:37:37.044Z,16.40
2019-02-24T00:40:08.716Z,15.90
2019-02-24T00:42:39.759Z,15.23
2019-02-24T00:45:10.395Z,15.17
2019-02-24T00:47:40.867Z,13.77
2019-02-24T00:50:11.443Z,14.23
2019-02-24T00:52:42.466Z,15.37
2019-02-24T00:55:13.033Z,13.30
2019-02-24T00:57:43.534Z,12.87
2019-02-24T01:00:14.575Z,13.30
2019-02-24T01:02:45.161Z,12.93
2019-02-24T01:05:15.703Z,12.53
2019-02-24T01:07:47.743Z,11.37
2019-02-24T01:10:18.247Z,11.67
2019-02-24T01:12:48.717Z,11.83
2019-02-24T01:15:19.213Z,12.77
2019-02-24T01:17:49.681Z,10.97
2019-02-24T01:20:20.184Z,12.80
2019-02-24T01:22:50.691Z,13.23
2019-02-24T01:25:23.045Z,14.10
2019-02-24T01:27:53.527Z,14.53
2019-02-24T01:30:25.915Z,15.40
2019-02-24T01:32:57.261Z,13.00
2019-02-24T01:35:27.768Z,12.53
2019-02-24T01:37:58.284Z,13.20
2019-02-24T01:40:30.435Z,12.13
2019-02-24T01:43:00.927Z,11.27
2019-02-24T01:45:31.447Z,13.90
2019-02-24T01:48:01.939Z,14.27
2019-02-24T01:50:32.430Z,12.53
2019-02-24T01:53:02.986Z,14.23
2019-02-24T01:55:35.766Z,11.13
2019-02-24T01:58:06.829Z,13.00
2019-02-24T02:00:37.329Z,12.97
2019-02-24T02:03:07.884Z,13.17
2019-02-24T02:05:38.400Z,13.80
2019-02-24T02:08:08.871Z,13.30
2019-02-24T02:10:39.381Z,13.10
2019-02-24T02:13:09.852Z,12.63
2019-02-24T02:15:40.351Z,11.87
2019-02-24T02:18:10.826Z,12.60
2019-02-24T02:20:41.331Z,11.97
2019-02-24T02:23:11.802Z,11.10
2019-02-24T02:25:42.309Z,11.30
2019-02-24T02:28:12.781Z,11.20
2019-02-24T02:30:43.281Z,13.57
2019-02-24T02:33:13.773Z,10.80
2019-02-24T02:35:44.353Z,11.13
2019-02-24T02:38:14.821Z,10.83
2019-02-24T02:40:45.315Z,11.87
2019-02-24T02:43:15.787Z,11.27
2019-02-24T02:45:46.304Z,11.07
2019-02-24T02:48:16.798Z,11.00
2019-02-24T02:50:47.450Z,13.77
2019-02-24T02:53:17.966Z,13.40
2019-02-24T02:55:49.040Z,12.20
2019-02-24T02:58:19.527Z,12.43
2019-02-24T03:00:50.000Z,12.00
2019-02-24T03:03:20.492Z,12.97
2019-02-24T03:05:52.594Z,12.43
2019-02-24T03:08:24.744Z,12.67
2019-02-24T03:10:55.213Z,13.50
2019-02-24T03:13:25.709Z,14.13
2019-02-24T03:15:56.220Z,13.20
2019-02-24T03:18:26.732Z,14.10
2019-02-24T03:20:57.200Z,14.13
2019-02-24T03:23:27.697Z,11.93
2019-02-24T03:25:58.177Z,12.60
2019-02-24T03:28:28.682Z,12.53
2019-02-24T03:30:59.938Z,13.33
2019-02-24T03:33:30.975Z,13.47
2019-02-24T03:36:01.479Z,13.50
2019-02-24T03:38:31.950Z,12.53
2019-02-24T03:41:02.522Z,13.50
2019-02-24T03:43:33.096Z,12.80
2019-02-24T03:46:03.575Z,12.40
2019-02-24T03:48:34.074Z,13.60
2019-02-24T03:51:04.548Z,13.70
2019-02-24T03:53:35.117Z,12.00
2019-02-24T03:56:05.594Z,13.60
2019-02-24T03:58:36.114Z,12.93
2019-02-24T04:01:06.677Z,13.27
2019-02-24T04:03:37.340Z,13.80
2019-02-24T04:06:07.811Z,12.70
2019-02-24T04:08:38.328Z,13.20
2019-02-24T04:11:09.913Z,13.70
2019-02-24T04:13:40.410Z,13.20
2019-02-24T04:16:10.988Z,13.00
2019-02-24T04:18:41.466Z,13.23
2019-02-24T04:21:11.964Z,13.77
2019-02-24T04:23:42.443Z,14.30
2019-02-24T04:26:13.518Z,13.30
2019-02-24T04:28:44.022Z,13.10
2019-02-24T04:31:14.597Z,12.90
2019-02-24T04:33:45.068Z,14.90
2019-02-24T04:36:17.874Z,13.27
2019-02-24T04:38:48.371Z,12.80
2019-02-24T04:41:18.851Z,12.83
2019-02-24T04:43:50.976Z,15.37
2019-02-24T04:46:21.494Z,13.00
2019-02-24T04:48:51.970Z,14.57
2019-02-24T04:51:22.443Z,12.10
2019-02-24T04:53:52.931Z,12.27
2019-02-24T04:56:24.152Z,12.10
2019-02-24T04:58:55.237Z,12.70
2019-02-24T05:01:27.237Z,12.70
2019-02-24T05:03:57.723Z,11.93
2019-02-24T05:06:28.257Z,11.60
2019-02-24T05:08:59.601Z,12.10
2019-02-24T05:11:30.094Z,12.17
2019-02-24T05:14:00.581Z,12.80
2019-02-24T05:16:31.095Z,11.67
2019-02-24T05:19:01.575Z,11.50
2019-02-24T05:21:32.055Z,11.50
2019-02-24T05:24:04.067Z,12.50
2019-02-24T05:26:35.586Z,12.30
2019-02-24T05:29:06.070Z,11.47
2019-02-24T05:31:36.576Z,12.00
2019-02-24T05:34:08.417Z,13.00
2019-02-24T05:36:38.902Z,12.50
2019-02-24T05:39:09.413Z,13.40
2019-02-24T05:41:42.317Z,13.30
2019-02-24T05:44:12.832Z,13.03
2019-02-24T05:46:43.290Z,11.10
2019-02-24T05:49:13.811Z,13.23
2019-02-24T05:51:44.804Z,14.00
2019-02-24T05:54:16.086Z,12.73
2019-02-24T05:56:46.574Z,11.67
2019-02-24T05:59:17.142Z,11.73
2019-02-24T06:01:47.613Z,11.50
2019-02-24T06:04:18.123Z,12.27
2019-02-24T06:06:48.592Z,13.53
2019-02-24T06:09:19.113Z,12.30
2019-02-24T06:11:49.601Z,12.00
2019-02-24T06:14:20.134Z,12.17
2019-02-24T06:16:52.172Z,13.03
2019-02-24T06:19:22.640Z,14.27
2019-02-24T06:21:53.150Z,11.80
2019-02-24T06:24:23.650Z,13.10
2019-02-24T06:26:54.129Z,11.93
2019-02-24T06:29:24.637Z,14.03
2019-02-24T06:31:55.107Z,12.47
2019-02-24T06:34:25.606Z,12.47
2019-02-24T06:36:56.080Z,13.80
2019-02-24T06:39:26.591Z,12.07
2019-02-24T06:41:57.066Z,12.67
2019-02-24T06:44:27.562Z,12.50
2019-02-24T06:46:58.363Z,12.40
2019-02-24T06:49:34.530Z,13.67
2019-02-24T06:52:05.035Z,12.77
2019-02-24T06:54:35.530Z,11.40
2019-02-24T06:57:05.996Z,12.30
2019-02-24T06:59:36.501Z,11.97
2019-02-24T07:02:06.980Z,12.63
2019-02-24T07:04:37.475Z,11.57
2019-02-24T07:07:07.954Z,11.77
2019-02-24T07:09:38.464Z,12.50
2019-02-24T07:12:08.935Z,11.73
2019-02-24T07:14:39.435Z,11.20
2019-02-24T07:17:09.969Z,12.53
2019-02-24T07:19:40.479Z,11.27
2019-02-24T07:22:10.976Z,11.60
2019-02-24T07:24:41.506Z,10.57
2019-02-24T07:27:31.321Z,11.40
2019-02-24T07:30:01.827Z,9.73
2019-02-24T07:32:32.308Z,10.77
2019-02-24T07:35:02.796Z,10.20
2019-02-24T07:37:33.273Z,10.07
2019-02-24T07:40:03.850Z,9.93
2019-02-24T07:42:34.328Z,10.67
2019-02-24T07:45:06.884Z,10.80
2019-02-24T07:47:37.341Z,11.30
2019-02-24T07:50:11.302Z,10.83
2019-02-24T07:52:41.754Z,9.90
2019-02-24T07:55:12.337Z,10.93
2019-02-24T07:57:42.871Z,11.00
2019-02-24T08:00:13.527Z,11.17
2019-02-24T08:02:43.986Z,10.80
2019-02-24T08:05:14.552Z,10.63
2019-02-24T08:07:45.045Z,11.63
2019-02-24T08:10:15.541Z,11.67
2019-02-24T08:12:46.016Z,11.43
2019-02-24T08:15:16.518Z,10.10
2019-02-24T08:17:46.987Z,10.70
2019-02-24T08:20:17.548Z,12.60
2019-02-24T08:22:48.029Z,11.80
2019-02-24T08:25:18.528Z,11.70
2019-02-24T08:27:49.020Z,11.17
2019-02-24T08:30:19.500Z,12.57
2019-02-24T08:32:49.989Z,11.73
2019-02-24T08:35:20.490Z,11.40
2019-02-24T08:37:50.962Z,11.23
2019-02-24T08:40:21.529Z,11.17
2019-02-24T08:42:52.036Z,11.60
2019-02-24T08:45:22.541Z,27.73
2019-02-24T08:47:53.034Z,15.80
2019-02-24T08:50:23.501Z,11.60
2019-02-24T08:52:54.002Z,10.90
2019-02-24T08:55:24.481Z,11.27
2019-02-24T08:57:54.979Z,12.70
2019-02-24T09:00:25.473Z,10.70
2019-02-24T09:02:55.934Z,10.50
2019-02-24T09:05:26.464Z,8.43
2019-02-24T09:07:56.908Z,9.37
2019-02-24T09:10:27.471Z,9.70
2019-02-24T09:12:58.830Z,9.30
2019-02-24T09:15:29.288Z,8.23
2019-02-24T09:17:59.800Z,8.83
2019-02-24T09:20:30.248Z,9.00
2019-02-24T09:23:00.733Z,8.40
2019-02-24T09:25:31.188Z,8.50
2019-02-24T09:28:01.685Z,9.77
2019-02-24T09:30:32.143Z,10.40
2019-02-24T09:33:02.659Z,10.33
2019-02-24T09:35:33.113Z,9.70
2019-02-24T09:38:03.610Z,10.33
2019-02-24T09:40:34.087Z,9.93
2019-02-24T09:43:04.565Z,8.03
2019-02-24T09:45:35.043Z,8.20
2019-02-24T09:48:05.553Z,9.20
2019-02-24T09:50:36.009Z,9.87
2019-02-24T09:53:06.484Z,8.73
2019-02-24T09:55:36.988Z,7.90
2019-02-24T09:58:08.132Z,7.40
2019-02-24T10:00:38.622Z,9.40
2019-02-24T10:03:09.094Z,7.47
2019-02-24T10:05:39.584Z,8.83
2019-02-24T10:08:10.105Z,7.77
2019-02-24T10:10:40.607Z,9.27
2019-02-24T10:13:11.072Z,9.00
2019-02-24T10:15:41.551Z,7.53
2019-02-24T10:18:12.115Z,7.93
2019-02-24T10:20:42.705Z,9.37
2019-02-24T10:23:13.205Z,8.57
2019-02-24T10:25:43.660Z,8.63
2019-02-24T10:28:14.147Z,8.77
2019-02-24T10:30:44.600Z,8.40
2019-02-24T10:33:15.175Z,7.63
2019-02-24T10:35:45.634Z,7.37
2019-02-24T10:38:16.115Z,8.13
2019-02-24T10:40:46.598Z,9.50
2019-02-24T10:43:17.103Z,10.07
2019-02-24T10:45:47.590Z,8.50
2019-02-24T10:48:18.095Z,7.57
2019-02-24T10:50:48.564Z,7.73
2019-02-24T10:53:19.020Z,6.67
2019-02-24T10:55:49.519Z,6.67
2019-02-24T10:58:21.308Z,6.80
2019-02-24T11:00:51.806Z,8.87
2019-02-24T11:03:22.292Z,7.50
2019-02-24T11:05:52.745Z,8.20
2019-02-24T11:08:23.230Z,6.70
2019-02-24T11:10:53.683Z,7.43
2019-02-24T11:13:24.215Z,6.70
2019-02-24T11:15:54.713Z,6.57
2019-02-24T11:18:25.226Z,7.83
2019-02-24T11:20:55.673Z,7.20
2019-02-24T11:23:26.167Z,6.77
2019-02-24T11:25:56.619Z,6.97
2019-02-24T11:28:27.114Z,7.37
2019-02-24T11:30:57.705Z,6.70
2019-02-24T11:33:28.208Z,7.23
2019-02-24T11:35:58.697Z,6.43
2019-02-24T11:38:29.258Z,7.07
2019-02-24T11:40:59.719Z,6.80
2019-02-24T11:43:30.212Z,6.67
2019-02-24T11:46:00.668Z,6.50
2019-02-24T11:48:31.152Z,6.20
2019-02-24T11:51:01.636Z,6.30
2019-02-24T11:53:32.113Z,6.30
2019-02-24T11:56:02.592Z,5.53
2019-02-24T11:58:33.055Z,5.60
2019-02-24T12:01:03.678Z,6.90
2019-02-24T12:03:34.144Z,8.00
2019-02-24T12:06:04.695Z,7.80
2019-02-24T12:08:37.181Z,7.03
2019-02-24T12:11:09.363Z,6.93
2019-02-24T12:13:39.855Z,6.30
2019-02-24T12:16:11.849Z,6.80
2019-02-24T12:18:42.366Z,6.20
2019-02-24T12:21:12.859Z,6.97
2019-02-24T12:23:43.343Z,7.20
2019-02-24T12:26:14.753Z,6.93
2019-02-24T12:28:45.207Z,7.47
2019-02-24T12:31:15.700Z,6.17
2019-02-24T12:33:46.728Z,6.80
2019-02-24T12:36:18.766Z,6.47
2019-02-24T12:38:49.225Z,6.53
2019-02-24T12:41:19.720Z,6.73
2019-02-24T12:43:50.276Z,5.87
2019-02-24T12:46:20.744Z,6.77
2019-02-24T12:48:51.234Z,6.80
2019-02-24T12:51:21.684Z,7.30
2019-02-24T12:53:52.195Z,7.50
2019-02-24T12:56:22.676Z,31.37
2019-02-24T12:58:53.160Z,15.47
2019-02-24T13:01:23.735Z,7.80
2019-02-24T13:03:54.187Z,6.63
2019-02-24T13:06:24.682Z,7.17
2019-02-24T13:08:55.209Z,7.10
2019-02-24T13:11:25.826Z,7.50
2019-02-24T13:13:56.330Z,7.43
2019-02-24T13:16:26.768Z,7.50
2019-02-24T13:18:57.270Z,6.90
2019-02-24T13:21:27.779Z,7.10
2019-02-24T13:23:58.301Z,7.90
2019-02-24T13:26:28.752Z,6.60
2019-02-24T13:28:59.237Z,7.00
2019-02-24T13:31:29.707Z,6.70
2019-02-24T13:34:00.164Z,7.37
2019-02-24T13:36:30.648Z,7.60
2019-02-24T13:39:01.113Z,10.50
2019-02-24T13:41:31.599Z,9.30
2019-02-24T13:44:02.067Z,7.77
2019-02-24T13:46:33.547Z,7.47
2019-02-24T13:49:04.026Z,7.60
2019-02-24T13:51:34.527Z,7.50
2019-02-24T13:54:05.086Z,7.10
2019-02-24T13:56:35.555Z,8.17
2019-02-24T13:59:06.932Z,7.63
2019-02-24T14:01:37.404Z,7.10
2019-02-24T14:04:07.847Z,6.63
2019-02-24T14:06:38.358Z,8.10
2019-02-24T14:09:08.806Z,7.93
2019-02-24T14:11:39.287Z,9.90
2019-02-24T14:14:10.015Z,8.47
2019-02-24T14:16:40.705Z,7.80
2019-02-24T14:19:11.188Z,8.40
2019-02-24T14:21:41.670Z,7.30
2019-02-24T14:24:12.143Z,10.27
2019-02-24T14:26:42.609Z,16.33
2019-02-24T14:29:13.103Z,9.33
2019-02-24T14:31:45.038Z,10.90
2019-02-24T14:34:15.544Z,8.13
2019-02-24T14:36:45.988Z,7.87
2019-02-24T14:39:16.566Z,8.40
2019-02-24T14:41:47.020Z,8.63
2019-02-24T14:44:17.507Z,7.17
2019-02-24T14:46:47.963Z,7.17
2019-02-24T14:49:19.601Z,7.37
2019-02-24T14:51:50.069Z,8.63
2019-02-24T14:54:20.560Z,7.93
2019-02-24T14:56:51.066Z,8.63
2019-02-24T14:59:24.445Z,11.50
2019-02-24T15:01:54.943Z,9.93
2019-02-24T15:04:25.442Z,8.20
2019-02-24T15:06:57.469Z,9.43
2019-02-24T15:09:29.703Z,9.37
2019-02-24T15:12:00.195Z,10.00
2019-02-24T15:14:30.698Z,11.27
2019-02-24T15:17:01.165Z,12.17
2019-02-24T15:19:31.657Z,10.80
2019-02-24T15:22:02.120Z,9.83
2019-02-24T15:24:32.979Z,10.37
2019-02-24T15:27:03.468Z,9.63
2019-02-24T15:29:35.782Z,8.27
2019-02-24T15:32:06.194Z,7.63
2019-02-24T15:34:36.645Z,26.00
2019-02-24T15:37:08.632Z,12.20
2019-02-24T15:39:39.094Z,9.37
2019-02-24T15:42:09.583Z,10.33
2019-02-24T15:44:40.055Z,8.70
2019-02-24T15:47:11.398Z,9.70
2019-02-24T15:49:41.875Z,9.87
2019-02-24T15:52:12.730Z,10.40
2019-02-24T15:54:43.186Z,9.83
2019-02-24T15:57:13.683Z,10.60
2019-02-24T15:59:44.148Z,10.87
2019-02-24T16:02:14.652Z,10.37
2019-02-24T16:04:45.110Z,10.63
2019-02-24T16:07:15.592Z,11.93
2019-02-24T16:09:46.059Z,10.20
2019-02-24T16:12:16.545Z,10.97
2019-02-24T16:14:47.039Z,11.40
2019-02-24T16:17:17.502Z,14.30
2019-02-24T16:19:47.996Z,44.00
2019-02-24T16:22:18.450Z,20.90
2019-02-24T16:24:50.473Z,12.93
2019-02-24T16:27:20.925Z,11.00
2019-02-24T16:29:51.424Z,11.30
2019-02-24T16:32:21.951Z,12.20
2019-02-24T16:34:52.468Z,12.93
2019-02-24T16:37:22.951Z,12.40
2019-02-24T16:39:53.409Z,14.40
2019-02-24T16:42:23.897Z,17.53
2019-02-24T16:44:54.454Z,18.93
2019-02-24T16:47:25.083Z,14.60
2019-02-24T16:49:56.248Z,12.00
2019-02-24T16:52:26.709Z,13.10
2019-02-24T16:54:57.195Z,12.20
2019-02-24T16:57:27.658Z,11.53
2019-02-24T16:59:59.689Z,11.10
2019-02-24T17:02:30.143Z,11.80
2019-02-24T17:05:00.623Z,38.03
2019-02-24T17:07:31.079Z,19.93
2019-02-24T17:10:01.559Z,16.07
2019-02-24T17:12:33.555Z,14.00
2019-02-24T17:15:04.480Z,17.10
2019-02-24T17:17:34.942Z,15.77
2019-02-24T17:20:09.717Z,13.73
2019-02-24T17:22:40.284Z,14.53
2019-02-24T17:25:11.456Z,14.33
2019-02-24T17:27:41.996Z,14.00
2019-02-24T17:30:16.680Z,13.93
2019-02-24T17:32:47.136Z,14.53
2019-02-24T17:35:17.702Z,14.47
2019-02-24T17:37:48.191Z,14.80
2019-02-24T17:40:22.834Z,14.60
2019-02-24T17:42:53.361Z,15.13
2019-02-24T17:45:27.874Z,15.43
2019-02-24T17:47:59.466Z,16.20
2019-02-24T17:50:30.006Z,15.50
2019-02-24T17:53:00.573Z,16.27
2019-02-24T17:55:33.360Z,22.03
2019-02-24T17:58:04.859Z,22.00
2019-02-24T18:00:43.364Z,23.53
2019-02-24T18:03:13.865Z,22.97
2019-02-24T18:05:44.331Z,20.37
2019-02-24T18:08:14.896Z,21.60
2019-02-24T18:10:45.403Z,23.00
2019-02-24T18:13:16.557Z,24.73
2019-02-24T18:15:47.081Z,25.47
2019-02-24T18:18:18.732Z,24.13
2019-02-24T18:20:49.224Z,30.17
2019-02-24T18:23:19.696Z,29.10
2019-02-24T18:25:51.808Z,28.80
2019-02-24T18:28:22.275Z,30.10
2019-02-24T18:30:52.864Z,31.90
2019-02-24T18:33:23.322Z,32.50
2019-02-24T18:35:53.829Z,31.53
2019-02-24T18:38:24.372Z,31.50
2019-02-24T18:40:54.844Z,30.63
2019-02-24T18:43:26.984Z,29.30
2019-02-24T18:45:57.470Z,35.07
2019-02-24T18:48:29.280Z,33.33
2019-02-24T18:51:00.332Z,40.57
2019-02-24T18:53:31.389Z,37.70
2019-02-24T18:56:09.452Z,35.70
2019-02-24T18:58:41.864Z,36.53
2019-02-24T19:01:12.406Z,34.10
2019-02-24T19:03:44.704Z,32.73
2019-02-24T19:06:16.688Z,28.67
2019-02-24T19:08:51.863Z,32.40
2019-02-24T19:11:23.200Z,30.90
2019-02-24T19:13:53.688Z,30.70
2019-02-24T19:16:24.956Z,32.20
2019-02-24T19:18:55.453Z,30.93
2019-02-24T19:21:25.913Z,31.93
2019-02-24T19:23:56.407Z,33.00
2019-02-24T19:26:26.907Z,30.10
2019-02-24T19:28:57.415Z,31.50
2019-02-24T19:31:27.890Z,30.40
2019-02-24T19:34:06.359Z,31.27
2019-02-24T19:36:30.574Z,30.13
2019-02-24T19:39:02.586Z,30.40
2019-02-24T19:41:33.108Z,29.70
2019-02-24T19:44:04.155Z,31.90
2019-02-24T19:46:35.329Z,28.97
2019-02-24T19:49:05.770Z,30.20
2019-02-24T19:51:37.521Z,29.17
2019-02-24T19:54:07.998Z,30.67
2019-02-24T19:56:38.498Z,28.43
2019-02-24T19:59:09.053Z,30.00
2019-02-24T20:01:39.561Z,32.90
2019-02-24T20:04:15.953Z,30.40
2019-02-24T20:06:42.245Z,28.63
2019-02-24T20:09:12.776Z,30.80
2019-02-24T20:11:44.570Z,31.03
2019-02-24T20:14:15.036Z,32.20
2019-02-24T20:16:47.066Z,32.30
2019-02-24T20:19:17.523Z,30.67
2019-02-24T20:21:48.010Z,31.37
2019-02-24T20:24:19.075Z,32.80
2019-02-24T20:26:49.571Z,35.50
2019-02-24T20:29:20.031Z,35.70
2019-02-24T20:31:50.553Z,36.37
2019-02-24T20:34:25.586Z,38.73
2019-02-24T20:36:54.926Z,36.03
2019-02-24T20:39:25.375Z,37.30
2019-02-24T20:41:55.887Z,37.80
2019-02-24T20:44:26.356Z,35.50
2019-02-24T20:47:00.028Z,34.47
2019-02-24T20:49:31.681Z,32.03
2019-02-24T20:52:03.589Z,33.20
2019-02-24T20:54:35.917Z,37.37
2019-02-24T20:57:06.479Z,35.67
2019-02-24T20:59:36.974Z,33.97
2019-02-24T21:02:08.240Z,35.83
2019-02-24T21:04:38.743Z,35.20
2019-02-24T21:07:09.191Z,33.63
2019-02-24T21:09:39.690Z,33.33
2019-02-24T21:12:11.697Z,37.50
2019-02-24T21:14:42.198Z,33.03
2019-02-24T21:17:12.666Z,34.03
2019-02-24T21:19:43.181Z,34.13
2019-02-24T21:22:13.630Z,30.93
2019-02-24T21:24:44.118Z,32.60
2019-02-24T21:27:14.605Z,33.60
2019-02-24T21:29:45.738Z,31.70
2019-02-24T21:32:16.216Z,30.30
2019-02-24T21:34:47.991Z,32.80
2019-02-24T21:37:18.484Z,34.40
2019-02-24T21:39:50.478Z,33.37
2019-02-24T21:42:20.976Z,30.47
2019-02-24T21:44:53.006Z,32.30
2019-02-24T21:47:23.491Z,31.63
2019-02-24T21:49:53.963Z,34.50
2019-02-24T21:52:25.227Z,32.27
2019-02-24T21:54:56.253Z,33.87
2019-02-24T21:57:26.744Z,32.47
2019-02-24T21:59:57.204Z,33.80
2019-02-24T22:02:27.696Z,33.47
2019-02-24T22:04:58.186Z,34.53
2019-02-24T22:07:28.672Z,37.63
2019-02-24T22:09:59.148Z,36.47
2019-02-24T22:12:29.632Z,39.10
2019-02-24T22:15:00.142Z,40.70
2019-02-24T22:17:30.762Z,39.40
2019-02-24T22:20:01.229Z,40.63
2019-02-24T22:22:33.380Z,40.23
2019-02-24T22:25:04.676Z,41.20
2019-02-24T22:27:35.174Z,39.57
2019-02-24T22:30:10.248Z,41.37
2019-02-24T22:32:41.654Z,40.67
2019-02-24T22:35:12.290Z,40.67
2019-02-24T22:37:42.815Z,38.27
2019-02-24T22:40:16.735Z,34.90
2019-02-24T22:42:47.822Z,32.80
2019-02-24T22:45:20.969Z,36.00
2019-02-24T22:47:51.525Z,32.40
2019-02-24T22:50:22.022Z,35.13
2019-02-24T22:52:52.478Z,33.00
2019-02-24T22:55:23.035Z,32.23
2019-02-24T22:57:53.501Z,31.90
2019-02-24T23:00:53.700Z,33.90
2019-02-24T23:03:31.299Z,32.07
2019-02-24T23:06:01.813Z,32.23
2019-02-24T23:08:34.495Z,30.10
2019-02-24T23:11:06.189Z,32.60
2019-02-24T23:13:36.650Z,31.57
2019-02-24T23:16:07.149Z,31.03
2019-02-24T23:18:38.183Z,30.90
2019-02-24T23:21:08.686Z,30.50
2019-02-24T23:23:39.154Z,32.70
2019-02-24T23:26:09.641Z,32.47
2019-02-24T23:28:40.277Z,32.60
2019-02-24T23:31:11.917Z,31.90
2019-02-24T23:33:42.407Z,31.50
2019-02-24T23:36:13.668Z,29.30
2019-02-24T23:38:44.724Z,30.40
2019-02-24T23:41:15.191Z,30.00
2019-02-24T23:43:45.691Z,29.00
2019-02-24T23:46:16.147Z,31.77
2019-02-24T23:48:46.655Z,29.30
2019-02-24T23:51:17.139Z,29.40
2019-02-24T23:53:47.644Z,28.53
2019-02-24T23:56:18.097Z,30.20
2019-02-24T23:58:48.581Z,28.80
